createdAt,value
2023-03-30T00:02:11.236Z,31.10
2023-03-30T00:07:18.644Z,29.50
2023-03-30T00:12:28.014Z,31.80
2023-03-30T00:17:35.844Z,26.90
2023-03-30T00:22:45.623Z,29.80
2023-03-30T00:27:53.794Z,27.80
2023-03-30T00:33:01.217Z,28.00
2023-03-30T00:38:08.867Z,27.30
2023-03-30T00:43:16.612Z,25.80
2023-03-30T00:48:28.846Z,29.20
2023-03-30T00:53:40.250Z,24.30
2023-03-30T00:58:49.470Z,21.10
2023-03-30T01:04:01.052Z,25.20
2023-03-30T01:09:08.952Z,20.90
2023-03-30T01:14:18.834Z,21.80
2023-03-30T01:20:09.482Z,19.70
2023-03-30T01:25:38.828Z,19.80
2023-03-30T01:31:06.170Z,34.50
2023-03-30T01:36:46.253Z,27.30
2023-03-30T01:42:01.724Z,28.80
2023-03-30T01:47:18.009Z,28.90
2023-03-30T01:52:32.168Z,27.70
2023-03-30T01:57:45.510Z,33.80
2023-03-30T02:02:59.657Z,22.10
2023-03-30T02:08:13.703Z,31.10
2023-03-30T02:13:24.484Z,38.00
2023-03-30T02:18:32.471Z,23.40
2023-03-30T02:23:44.259Z,36.30
2023-03-30T02:28:53.424Z,34.60
2023-03-30T02:34:11.288Z,36.00
2023-03-30T02:39:31.705Z,37.70
2023-03-30T02:44:50.388Z,30.10
2023-03-30T02:50:01.983Z,27.10
2023-03-30T02:55:19.236Z,21.60
2023-03-30T03:00:31.491Z,32.10
2023-03-30T03:05:39.373Z,25.90
2023-03-30T03:10:46.991Z,30.40
2023-03-30T03:15:56.604Z,30.20
2023-03-30T03:21:05.971Z,29.40
2023-03-30T03:26:14.732Z,33.10
2023-03-30T03:31:24.641Z,39.70
2023-03-30T03:36:33.121Z,30.20
2023-03-30T03:41:40.843Z,35.30
2023-03-30T03:46:48.815Z,33.20
2023-03-30T03:51:56.227Z,31.50
2023-03-30T03:57:04.216Z,32.00
2023-03-30T04:02:12.009Z,31.90
2023-03-30T04:07:19.656Z,27.00
2023-03-30T04:12:27.820Z,36.90
2023-03-30T04:17:35.638Z,25.00
2023-03-30T04:22:46.456Z,35.70
2023-03-30T04:27:54.698Z,25.90
2023-03-30T04:33:05.120Z,26.50
2023-03-30T04:38:13.676Z,32.10
2023-03-30T04:43:23.212Z,29.00
2023-03-30T04:48:30.982Z,22.00
2023-03-30T04:53:40.477Z,26.70
2023-03-30T04:58:48.124Z,34.10
2023-03-30T05:03:55.668Z,28.60
2023-03-30T05:09:03.272Z,20.30
2023-03-30T05:14:10.827Z,30.90
2023-03-30T05:19:19.359Z,24.20
2023-03-30T05:24:27.385Z,25.20
2023-03-30T05:29:34.850Z,23.40
2023-03-30T05:34:42.371Z,25.30
2023-03-30T05:39:51.409Z,20.40
2023-03-30T05:44:58.993Z,21.80
2023-03-30T05:50:11.835Z,20.70
2023-03-30T05:55:19.650Z,22.40
2023-03-30T06:00:27.539Z,21.50
2023-03-30T06:05:35.915Z,24.10
2023-03-30T06:10:43.606Z,16.00
2023-03-30T06:15:51.368Z,23.00
2023-03-30T06:20:58.908Z,29.50
2023-03-30T06:26:07.843Z,22.60
2023-03-30T06:31:15.612Z,23.90
2023-03-30T06:36:44.370Z,22.00
2023-03-30T06:46:15.420Z,24.40
2023-03-30T06:51:23.113Z,22.40
2023-03-30T06:56:30.991Z,21.50
2023-03-30T07:01:38.782Z,18.50
2023-03-30T07:06:46.352Z,18.40
2023-03-30T07:11:56.495Z,14.00
2023-03-30T07:17:04.469Z,13.90
2023-03-30T07:22:12.420Z,16.80
2023-03-30T07:27:20.163Z,11.80
2023-03-30T07:32:28.325Z,15.20
2023-03-30T07:37:37.936Z,13.30
2023-03-30T07:42:45.643Z,9.00
2023-03-30T07:47:53.853Z,10.40
2023-03-30T07:53:01.476Z,12.20
2023-03-30T07:58:09.179Z,6.90
2023-03-30T08:03:17.115Z,6.00
2023-03-30T08:08:25.533Z,6.30
2023-03-30T08:13:33.723Z,6.30
2023-03-30T08:18:43.316Z,6.30
2023-03-30T08:23:51.092Z,8.70
2023-03-30T08:28:58.811Z,7.90
2023-03-30T08:34:08.195Z,5.20
2023-03-30T08:39:16.552Z,4.80
2023-03-30T08:44:35.562Z,4.80
2023-03-30T08:49:49.522Z,10.10
2023-03-30T08:54:58.276Z,4.00
2023-03-30T09:00:27.874Z,4.90
2023-03-30T09:05:39.280Z,5.30
2023-03-30T09:10:51.914Z,4.70
2023-03-30T09:16:04.650Z,3.80
2023-03-30T09:21:15.212Z,3.60
2023-03-30T09:26:30.914Z,4.20
2023-03-30T09:31:44.721Z,4.50
2023-03-30T09:36:59.568Z,3.60
2023-03-30T09:42:20.503Z,3.90
2023-03-30T09:47:30.464Z,7.00
2023-03-30T09:52:40.974Z,4.40
2023-03-30T09:57:49.061Z,4.20
2023-03-30T10:03:03.189Z,3.60
2023-03-30T10:08:25.026Z,3.70
2023-03-30T10:13:37.755Z,3.30
2023-03-30T10:18:47.695Z,3.00
2023-03-30T10:24:08.351Z,4.60
2023-03-30T10:29:19.865Z,3.60
2023-03-30T10:34:41.298Z,3.20
2023-03-30T10:45:29.217Z,3.80
2023-03-30T10:50:46.479Z,5.00
2023-03-30T10:56:03.324Z,3.50
2023-03-30T11:01:20.302Z,5.00
2023-03-30T11:06:33.413Z,3.70
2023-03-30T11:11:47.053Z,3.10
2023-03-30T11:17:00.302Z,5.00
2023-03-30T11:22:13.082Z,4.70
2023-03-30T11:27:28.112Z,5.10
2023-03-30T11:32:45.592Z,4.80
2023-03-30T11:37:59.181Z,4.50
2023-03-30T11:43:06.709Z,4.00
2023-03-30T11:48:30.500Z,3.40
2023-03-30T11:53:50.057Z,3.20
2023-03-30T11:59:06.448Z,3.90
2023-03-30T12:04:17.399Z,4.40
2023-03-30T12:09:29.854Z,5.00
2023-03-30T12:14:56.461Z,3.50
2023-03-30T12:20:13.065Z,7.20
2023-03-30T12:25:30.038Z,5.00
2023-03-30T12:36:01.157Z,5.90
2023-03-30T12:46:26.664Z,4.90
2023-03-30T12:51:51.213Z,6.00
2023-03-30T12:57:04.556Z,4.60
2023-03-30T13:02:32.716Z,5.40
2023-03-30T13:07:43.506Z,4.10
2023-03-30T13:12:51.626Z,6.40
2023-03-30T13:18:04.382Z,6.00
2023-03-30T13:23:35.070Z,6.50
2023-03-30T13:29:05.481Z,5.20
2023-03-30T13:34:22.128Z,6.00
2023-03-30T13:39:35.916Z,8.10
2023-03-30T13:44:57.380Z,7.50
2023-03-30T13:50:08.515Z,5.10
2023-03-30T13:55:33.126Z,6.30
2023-03-30T14:00:48.593Z,7.40
2023-03-30T14:06:04.551Z,6.10
2023-03-30T14:11:19.362Z,6.60
2023-03-30T14:16:28.726Z,6.30
2023-03-30T14:21:38.114Z,5.80
2023-03-30T14:26:48.125Z,17.30
2023-03-30T14:32:07.151Z,10.40
2023-03-30T14:37:19.092Z,5.80
2023-03-30T14:42:34.280Z,8.20
2023-03-30T14:47:42.453Z,8.30
2023-03-30T14:52:52.682Z,8.40
2023-03-30T14:58:01.247Z,6.40
2023-03-30T15:03:19.605Z,8.90
2023-03-30T15:08:34.850Z,7.50
2023-03-30T15:13:45.844Z,11.20
2023-03-30T15:18:54.641Z,11.20
2023-03-30T15:24:03.453Z,8.30
2023-03-30T15:29:12.035Z,10.30
2023-03-30T15:34:22.564Z,11.70
2023-03-30T15:39:36.537Z,10.80
2023-03-30T15:44:44.904Z,13.60
2023-03-30T15:49:53.741Z,13.20
2023-03-30T15:55:08.729Z,9.70
2023-03-30T16:00:20.767Z,12.90
2023-03-30T16:05:30.337Z,11.20
2023-03-30T16:10:40.570Z,12.80
2023-03-30T16:15:48.931Z,8.70
2023-03-30T16:20:56.606Z,10.60
2023-03-30T16:26:04.293Z,12.00
2023-03-30T16:31:18.540Z,11.80
2023-03-30T16:36:28.014Z,15.00
2023-03-30T16:41:35.561Z,11.10
2023-03-30T16:46:43.694Z,9.70
2023-03-30T16:51:52.600Z,10.90
2023-03-30T16:57:02.552Z,12.20
2023-03-30T17:02:16.930Z,11.20
2023-03-30T17:07:26.909Z,8.20
2023-03-30T17:12:35.351Z,11.50
2023-03-30T17:17:42.966Z,9.20
2023-03-30T17:22:51.179Z,9.40
2023-03-30T17:27:59.931Z,10.00
2023-03-30T17:33:11.122Z,9.30
2023-03-30T17:38:19.728Z,9.90
2023-03-30T17:43:27.645Z,12.70
2023-03-30T17:48:35.310Z,12.50
2023-03-30T17:53:43.795Z,11.50
2023-03-30T17:58:53.515Z,9.10
2023-03-30T18:04:01.246Z,11.00
2023-03-30T18:09:11.659Z,12.00
2023-03-30T18:14:19.868Z,8.70
2023-03-30T18:19:28.937Z,10.00
2023-03-30T18:24:36.678Z,10.00
2023-03-30T18:29:44.279Z,8.90
2023-03-30T18:34:51.879Z,7.60
2023-03-30T18:45:36.211Z,8.50
2023-03-30T18:50:45.922Z,11.90
2023-03-30T18:55:57.429Z,14.50
2023-03-30T19:01:07.109Z,12.30
2023-03-30T19:06:20.021Z,11.20
2023-03-30T19:11:28.710Z,11.60
2023-03-30T19:16:36.645Z,17.50
2023-03-30T19:21:46.505Z,18.50
2023-03-30T19:26:54.019Z,15.60
2023-03-30T19:32:01.919Z,17.70
2023-03-30T19:37:09.421Z,12.40
2023-03-30T19:42:18.061Z,17.90
2023-03-30T19:47:29.078Z,15.90
2023-03-30T19:52:37.330Z,17.10
2023-03-30T19:57:45.001Z,19.20
2023-03-30T20:02:55.448Z,20.30
2023-03-30T20:08:07.998Z,21.80
2023-03-30T20:13:22.134Z,16.70
2023-03-30T20:18:31.277Z,20.80
2023-03-30T20:23:38.511Z,21.40
2023-03-30T20:28:46.146Z,21.20
2023-03-30T20:33:54.856Z,18.70
2023-03-30T20:39:02.346Z,22.00
2023-03-30T20:44:12.908Z,22.20
2023-03-30T20:49:20.664Z,23.00
2023-03-30T20:54:29.133Z,21.70
2023-03-30T20:59:36.702Z,27.30
2023-03-30T21:04:45.606Z,26.70
2023-03-30T21:09:53.568Z,26.10
2023-03-30T21:15:01.054Z,26.90
2023-03-30T21:20:11.242Z,25.50
2023-03-30T21:25:19.074Z,25.70
2023-03-30T21:30:28.759Z,29.80
2023-03-30T21:35:36.366Z,23.70
2023-03-30T21:40:44.439Z,32.50
2023-03-30T21:45:57.302Z,26.10
2023-03-30T21:51:07.610Z,33.40
2023-03-30T21:56:16.788Z,31.20
2023-03-30T22:01:25.337Z,31.00
2023-03-30T22:06:33.351Z,29.30
2023-03-30T22:11:41.308Z,28.40
2023-03-30T22:16:49.262Z,26.10
2023-03-30T22:21:57.257Z,24.20
2023-03-30T22:27:05.185Z,25.80
2023-03-30T22:32:12.639Z,23.50
2023-03-30T22:37:20.473Z,24.00
2023-03-30T22:42:28.113Z,19.30
2023-03-30T22:47:35.849Z,21.70
2023-03-30T22:52:43.168Z,20.40
2023-03-30T22:57:52.811Z,28.60
2023-03-30T23:03:00.813Z,25.50
2023-03-30T23:08:09.540Z,29.60
2023-03-30T23:13:17.085Z,23.50
2023-03-30T23:18:24.526Z,23.20
2023-03-30T23:23:32.206Z,39.30
2023-03-30T23:28:41.647Z,30.80
2023-03-30T23:33:49.549Z,40.50
2023-03-30T23:38:57.348Z,36.70
2023-03-30T23:44:05.060Z,36.30
2023-03-30T23:49:13.710Z,34.00
2023-03-30T23:54:25.735Z,22.00
2023-03-30T23:59:33.869Z,23.10
